Angwin, CA (94508)

8:53 PM PST on February 07, 2016 (GMT -0800)
Edgewood | | Change Station
CLOSE
Current Station
Personal Weather Station
Location: Angwin, CA
Elevation: 1766 ft
Nearby Weather Stations

Elev 1766 ft 38.57 °N, 122.44 °W | Updated 0 second ago

Clear
Clear
67.0 °F
Feels Like 67.0 °F
N
5.0
Wind Variable Wind from NE
Gusts 12.0 mph

Today
High -- | Low -- °F
--% Chance of Precip.
Yesterday
High -- | Low -- °F
Precip. -- in
Pressure 30.17 in
Visibility 10.0 miles
Clouds Clear
Dew Point 40 °F
Humidity 38%
Rainfall 0.00 in
Snow Depth Not available.
7:09 AM 5:38 PM
Waning Crescent, 0% visible
METAR KSTS 080353Z AUTO 15003KT 10SM CLR 13/10 A3019 RMK AO2 SLP216 T01330100
Pressure 30.17 in
Visibility 10.0 miles
Clouds Clear
Dew Point 40 °F
Humidity 38%
Rainfall 0.00 in
Snow Depth Not available.
7:09 AM 5:38 PM
Waning Crescent, 0% visible
METAR KSTS 080353Z AUTO 15003KT 10SM CLR 13/10 A3019 RMK AO2 SLP216 T01330100

10-Day Weather Forecast

Almanac

Astronomy

Feb. 07, 2016 Rise Set
Actual Time
Civil Twilight
Nautical Twilight
Astronomical Twilight
Moon
Length of Visible Light
Length of Day
Tomorrow will be .
, % of the Moon is Illuminated

Today's Extremes

State Highs State Lows

Community

WunderPhotos

Upload Photos

1,891,382 photos uploaded!

WunderBlog® & News

Nearby

Air Quality

  Air Quality AQ Index Pollutant
Not available.

Snow Depth

Station Depth Elevation

Earthquake Activity

City Distance Mag. Time & Date
Minimum magnitude displayed is 2.5.

Coastal Water Temperatures

Place Temperature

Stations

Nearby Weather Stations

Station Location Temp. Windchill Dew Point Humidity Wind Precip. Elev Updated Type
                   

Watches & Warnings

There are currently no watches in effect.